createdAt,value
2019-02-10T00:00:38.656Z,57.53
2019-02-10T00:03:10.394Z,57.70
2019-02-10T00:05:40.936Z,53.40
2019-02-10T00:08:14.918Z,52.90
2019-02-10T00:10:45.691Z,58.43
2019-02-10T00:13:30.068Z,60.53
2019-02-10T00:16:01.791Z,55.97
2019-02-10T00:18:32.417Z,56.27
2019-02-10T00:21:03.440Z,56.10
2019-02-10T00:23:35.410Z,53.33
2019-02-10T00:26:06.628Z,60.93
2019-02-10T00:28:37.374Z,53.93
2019-02-10T00:31:09.270Z,54.80
2019-02-10T00:33:39.532Z,54.03
2019-02-10T00:36:10.161Z,59.37
2019-02-10T00:38:41.503Z,55.40
2019-02-10T00:41:12.206Z,54.17
2019-02-10T00:43:42.478Z,54.10
2019-02-10T00:46:12.774Z,60.07
2019-02-10T00:48:42.960Z,52.93
2019-02-10T00:51:13.235Z,55.13
2019-02-10T00:53:44.043Z,55.93
2019-02-10T00:56:14.292Z,52.27
2019-02-10T00:58:44.638Z,57.97
2019-02-10T01:01:14.969Z,55.87
2019-02-10T01:03:45.545Z,51.60
2019-02-10T01:06:15.799Z,54.87
2019-02-10T01:08:46.284Z,50.30
2019-02-10T01:11:16.896Z,51.10
2019-02-10T01:13:47.295Z,53.00
2019-02-10T01:16:17.541Z,53.93
2019-02-10T01:19:10.458Z,51.47
2019-02-10T01:21:45.505Z,55.07
2019-02-10T01:24:15.842Z,51.47
2019-02-10T01:26:46.288Z,54.87
2019-02-10T01:29:16.940Z,54.67
2019-02-10T01:31:48.728Z,54.87
2019-02-10T01:34:19.517Z,51.37
2019-02-10T01:36:50.166Z,54.37
2019-02-10T01:39:23.967Z,50.73
2019-02-10T01:41:54.566Z,55.43
2019-02-10T01:44:25.065Z,54.43
2019-02-10T01:46:55.301Z,48.57
2019-02-10T01:49:25.525Z,55.83
2019-02-10T01:51:56.003Z,50.50
2019-02-10T01:54:27.791Z,54.20
2019-02-10T01:56:58.351Z,56.37
2019-02-10T01:59:28.813Z,54.27
2019-02-10T02:01:59.075Z,52.67
2019-02-10T02:04:29.565Z,50.23
2019-02-10T02:06:59.827Z,49.27
2019-02-10T02:09:30.615Z,49.33
2019-02-10T02:12:01.230Z,56.93
2019-02-10T02:14:31.995Z,56.33
2019-02-10T02:17:02.146Z,52.00
2019-02-10T02:19:32.683Z,55.47
2019-02-10T02:22:03.599Z,54.97
2019-02-10T02:24:33.848Z,53.67
2019-02-10T02:27:04.167Z,57.80
2019-02-10T02:29:34.861Z,58.07
2019-02-10T02:32:05.895Z,51.60
2019-02-10T02:34:36.226Z,54.37
2019-02-10T02:37:08.254Z,54.73
2019-02-10T02:39:38.828Z,55.50
2019-02-10T02:42:09.088Z,56.20
2019-02-10T02:44:39.379Z,56.07
2019-02-10T02:47:09.639Z,52.17
2019-02-10T02:49:40.304Z,56.07
2019-02-10T02:52:12.059Z,56.30
2019-02-10T02:54:42.613Z,53.80
2019-02-10T02:57:12.817Z,52.23
2019-02-10T02:59:43.381Z,50.63
2019-02-10T03:02:13.629Z,49.50
2019-02-10T03:04:44.122Z,51.23
2019-02-10T03:07:18.022Z,51.60
2019-02-10T03:09:46.722Z,55.50
2019-02-10T03:12:16.973Z,48.20
2019-02-10T03:14:47.465Z,53.33
2019-02-10T03:17:17.709Z,51.43
2019-02-10T03:19:47.916Z,48.80
2019-02-10T03:22:19.997Z,53.27
2019-02-10T03:24:50.237Z,51.03
2019-02-10T03:27:20.583Z,48.17
2019-02-10T03:29:50.852Z,48.63
2019-02-10T03:32:22.393Z,47.00
2019-02-10T03:34:52.625Z,47.60
2019-02-10T03:37:27.266Z,45.93
2019-02-10T03:39:55.019Z,45.30
2019-02-10T03:42:25.952Z,48.73
2019-02-10T03:44:56.205Z,48.40
2019-02-10T03:47:26.743Z,50.87
2019-02-10T03:49:57.005Z,50.27
2019-02-10T03:52:27.499Z,48.60
2019-02-10T03:54:57.776Z,48.40
2019-02-10T03:57:28.305Z,49.50
2019-02-10T03:59:58.530Z,52.53
2019-02-10T04:02:29.056Z,44.83
2019-02-10T04:04:59.305Z,47.87
2019-02-10T04:07:35.843Z,46.23
2019-02-10T04:10:01.861Z,46.17
2019-02-10T04:12:32.137Z,46.70
2019-02-10T04:15:02.394Z,53.00
2019-02-10T04:17:33.147Z,43.93
2019-02-10T04:20:03.691Z,46.17
2019-02-10T04:22:34.522Z,48.13
2019-02-10T04:25:05.020Z,45.50
2019-02-10T04:27:35.351Z,45.53
2019-02-10T04:30:06.250Z,42.87
2019-02-10T04:32:37.560Z,44.27
2019-02-10T04:35:07.822Z,43.10
2019-02-10T04:37:45.455Z,46.03
2019-02-10T04:40:10.248Z,41.30
2019-02-10T04:42:40.790Z,44.20
2019-02-10T04:45:11.071Z,40.97
2019-02-10T04:47:41.328Z,44.33
2019-02-10T04:50:11.932Z,39.03
2019-02-10T04:52:42.096Z,40.67
2019-02-10T04:55:12.927Z,42.70
2019-02-10T04:57:43.162Z,41.87
2019-02-10T05:00:13.674Z,44.50
2019-02-10T05:02:43.908Z,42.57
2019-02-10T05:05:14.464Z,45.77
2019-02-10T05:07:44.707Z,44.20
2019-02-10T05:10:15.181Z,40.70
2019-02-10T05:12:45.411Z,41.73
2019-02-10T05:15:15.604Z,44.10
2019-02-10T05:17:46.181Z,44.20
2019-02-10T05:20:16.421Z,41.77
2019-02-10T05:22:47.182Z,44.27
2019-02-10T05:25:17.435Z,47.23
2019-02-10T05:27:47.989Z,47.17
2019-02-10T05:30:18.290Z,43.63
2019-02-10T05:32:49.637Z,44.00
2019-02-10T05:35:19.895Z,42.87
2019-02-10T05:37:50.393Z,41.77
2019-02-10T05:40:20.649Z,44.20
2019-02-10T05:42:51.450Z,50.37
2019-02-10T05:45:21.942Z,42.67
2019-02-10T05:47:52.404Z,42.30
2019-02-10T05:50:22.671Z,43.23
2019-02-10T05:52:53.568Z,42.93
2019-02-10T05:55:23.798Z,44.90
2019-02-10T05:57:54.411Z,42.70
2019-02-10T06:00:24.857Z,42.93
2019-02-10T06:02:55.370Z,38.83
2019-02-10T06:05:27.552Z,42.30
2019-02-10T06:07:57.982Z,39.50
2019-02-10T06:10:28.231Z,44.30
2019-02-10T06:12:58.717Z,41.63
2019-02-10T06:15:28.968Z,39.57
2019-02-10T06:17:59.470Z,42.53
2019-02-10T06:20:29.742Z,38.73
2019-02-10T06:23:00.442Z,44.77
2019-02-10T06:25:30.699Z,40.10
2019-02-10T06:28:01.598Z,34.77
2019-02-10T06:30:31.833Z,36.87
2019-02-10T06:33:03.280Z,39.80
2019-02-10T06:35:33.526Z,40.47
2019-02-10T06:38:03.854Z,38.10
2019-02-10T06:40:34.120Z,33.20
2019-02-10T06:43:04.431Z,42.47
2019-02-10T06:45:34.992Z,39.13
2019-02-10T06:48:05.235Z,39.67
2019-02-10T06:50:35.629Z,40.60
2019-02-10T06:53:06.892Z,39.67
2019-02-10T06:55:37.191Z,37.50
2019-02-10T06:58:07.429Z,36.97
2019-02-10T07:00:45.905Z,40.43
2019-02-10T07:03:55.401Z,41.17
2019-02-10T07:06:25.689Z,41.27
2019-02-10T07:08:56.151Z,44.93
2019-02-10T07:11:26.382Z,42.00
2019-02-10T07:13:59.129Z,39.07
2019-02-10T07:17:01.959Z,42.83
2019-02-10T07:20:15.941Z,38.80
2019-02-10T07:23:27.121Z,44.57
2019-02-10T07:26:06.752Z,39.07
2019-02-10T07:29:18.637Z,44.17
2019-02-10T07:32:00.802Z,45.53
2019-02-10T07:35:13.443Z,40.67
2019-02-10T07:38:17.716Z,41.63
2019-02-10T07:41:40.903Z,41.17
2019-02-10T07:45:01.302Z,39.23
2019-02-10T07:48:14.329Z,45.60
2019-02-10T07:51:05.332Z,39.50
2019-02-10T07:53:45.366Z,40.80
2019-02-10T07:56:50.097Z,41.43
2019-02-10T08:00:19.529Z,44.23
2019-02-10T08:03:21.469Z,39.57
2019-02-10T08:06:22.930Z,42.93
2019-02-10T08:09:49.713Z,41.47
2019-02-10T08:13:07.212Z,40.23
2019-02-10T08:16:46.096Z,45.67
2019-02-10T08:19:52.006Z,42.20
2019-02-10T08:22:39.238Z,37.90
2019-02-10T08:26:02.799Z,47.20
2019-02-10T08:29:10.634Z,41.03
2019-02-10T08:32:30.137Z,38.33
2019-02-10T08:35:48.942Z,40.43
2019-02-10T08:38:38.261Z,38.47
2019-02-10T08:41:37.048Z,43.70
2019-02-10T08:44:50.147Z,39.93
2019-02-10T08:47:36.592Z,40.93
2019-02-10T08:50:44.033Z,40.00
2019-02-10T08:53:33.524Z,41.03
2019-02-10T08:56:05.280Z,44.03
2019-02-10T08:58:36.178Z,40.77
2019-02-10T09:01:07.594Z,38.07
2019-02-10T09:03:38.576Z,39.00
2019-02-10T09:06:08.921Z,36.40
2019-02-10T09:08:39.470Z,42.47
2019-02-10T09:11:09.889Z,41.87
2019-02-10T09:13:40.473Z,37.30
2019-02-10T09:16:10.704Z,36.43
2019-02-10T09:18:41.254Z,40.13
2019-02-10T09:21:11.484Z,39.53
2019-02-10T09:23:42.015Z,39.80
2019-02-10T09:26:12.279Z,38.87
2019-02-10T09:28:42.546Z,39.20
2019-02-10T09:31:12.990Z,37.90
2019-02-10T09:33:43.344Z,37.73
2019-02-10T09:36:14.429Z,31.80
2019-02-10T09:38:45.169Z,33.23
2019-02-10T09:41:15.740Z,35.00
2019-02-10T09:43:46.098Z,29.73
2019-02-10T09:46:16.777Z,33.03
2019-02-10T09:48:47.070Z,31.90
2019-02-10T09:51:17.902Z,32.80
2019-02-10T09:53:48.332Z,32.13
2019-02-10T09:56:18.716Z,31.50
2019-02-10T09:58:50.060Z,28.80
2019-02-10T10:01:20.362Z,35.50
2019-02-10T10:03:50.647Z,29.00
2019-02-10T10:06:22.648Z,29.50
2019-02-10T10:08:53.003Z,28.53
2019-02-10T10:11:23.241Z,31.07
2019-02-10T10:13:53.832Z,30.87
2019-02-10T10:16:24.381Z,32.53
2019-02-10T10:18:54.616Z,29.73
2019-02-10T10:21:25.115Z,45.40
2019-02-10T10:23:55.560Z,32.30
2019-02-10T10:26:26.057Z,30.70
2019-02-10T10:28:56.997Z,27.77
2019-02-10T10:31:27.401Z,38.30
2019-02-10T10:33:57.657Z,34.17
2019-02-10T10:36:28.906Z,37.10
2019-02-10T10:38:59.149Z,34.33
2019-02-10T10:41:29.645Z,32.77
2019-02-10T10:43:59.880Z,32.93
2019-02-10T10:46:30.285Z,31.90
2019-02-10T10:49:00.625Z,32.07
2019-02-10T10:51:32.506Z,30.87
2019-02-10T10:54:02.869Z,30.33
2019-02-10T10:56:33.147Z,38.43
2019-02-10T10:59:03.665Z,34.70
2019-02-10T11:01:33.949Z,34.87
2019-02-10T11:04:04.217Z,33.60
2019-02-10T11:06:34.639Z,30.90
2019-02-10T11:09:05.825Z,29.43
2019-02-10T11:11:36.063Z,32.00
2019-02-10T11:14:06.852Z,33.57
2019-02-10T11:16:37.131Z,32.47
2019-02-10T11:19:07.420Z,32.20
2019-02-10T11:21:37.953Z,30.70
2019-02-10T11:24:09.247Z,34.07
2019-02-10T11:26:39.491Z,29.67
2019-02-10T11:29:10.320Z,27.60
2019-02-10T11:31:40.606Z,32.40
2019-02-10T11:34:10.887Z,28.87
2019-02-10T11:36:43.136Z,25.53
2019-02-10T11:39:13.427Z,28.13
2019-02-10T11:41:43.894Z,30.63
2019-02-10T11:44:14.166Z,25.23
2019-02-10T11:46:44.504Z,23.43
2019-02-10T11:49:15.172Z,24.07
2019-02-10T11:51:45.461Z,26.73
2019-02-10T11:54:16.887Z,25.13
2019-02-10T11:56:47.171Z,27.03
2019-02-10T11:59:18.396Z,30.00
2019-02-10T12:01:48.780Z,28.53
2019-02-10T12:04:19.268Z,27.77
2019-02-10T12:06:50.282Z,30.83
2019-02-10T12:09:20.924Z,28.30
2019-02-10T12:11:51.190Z,22.90
2019-02-10T12:14:22.789Z,24.27
2019-02-10T12:16:53.190Z,25.97
2019-02-10T12:19:23.976Z,28.17
2019-02-10T12:21:54.239Z,25.27
2019-02-10T12:24:25.033Z,27.43
2019-02-10T12:26:55.494Z,29.80
2019-02-10T12:29:26.532Z,27.13
2019-02-10T12:31:56.781Z,30.60
2019-02-10T12:34:27.246Z,27.43
2019-02-10T12:36:58.257Z,28.27
2019-02-10T12:39:28.905Z,30.63
2019-02-10T12:41:59.158Z,25.87
2019-02-10T12:44:29.520Z,29.93
2019-02-10T12:47:00.095Z,29.00
2019-02-10T12:49:30.338Z,28.73
2019-02-10T12:52:00.594Z,29.17
2019-02-10T12:54:31.054Z,27.47
2019-02-10T12:57:01.332Z,27.63
2019-02-10T12:59:32.779Z,28.37
2019-02-10T13:02:03.766Z,31.40
2019-02-10T13:04:34.174Z,35.07
2019-02-10T13:07:04.570Z,29.67
2019-02-10T13:09:35.175Z,29.10
2019-02-10T13:12:05.458Z,29.10
2019-02-10T13:14:36.102Z,30.93
2019-02-10T13:17:06.534Z,28.00
2019-02-10T13:19:36.964Z,31.63
2019-02-10T13:22:07.302Z,31.07
2019-02-10T13:24:38.124Z,29.57
2019-02-10T13:27:08.443Z,34.00
2019-02-10T13:29:39.711Z,28.70
2019-02-10T13:32:09.990Z,36.57
2019-02-10T13:34:40.321Z,33.87
2019-02-10T13:37:12.175Z,30.70
2019-02-10T13:39:42.743Z,31.37
2019-02-10T13:42:13.008Z,29.07
2019-02-10T13:44:43.500Z,28.43
2019-02-10T13:47:13.819Z,27.30
2019-02-10T13:49:45.207Z,30.20
2019-02-10T13:52:15.490Z,33.47
2019-02-10T13:54:45.922Z,33.63
2019-02-10T13:57:16.222Z,35.67
2019-02-10T13:59:47.982Z,36.50
2019-02-10T14:02:18.433Z,39.10
2019-02-10T14:04:49.283Z,37.40
2019-02-10T14:07:19.523Z,32.37
2019-02-10T14:09:50.031Z,36.00
2019-02-10T14:12:20.319Z,37.03
2019-02-10T14:14:50.782Z,34.00
2019-02-10T14:17:21.085Z,36.77
2019-02-10T14:19:51.732Z,33.00
2019-02-10T14:22:22.103Z,36.90
2019-02-10T14:24:52.577Z,34.10
2019-02-10T14:27:22.877Z,33.03
2019-02-10T14:29:53.643Z,35.20
2019-02-10T14:32:23.903Z,34.17
2019-02-10T14:34:54.398Z,35.67
2019-02-10T14:37:25.475Z,33.30
2019-02-10T14:39:56.068Z,33.67
2019-02-10T14:42:26.328Z,35.70
2019-02-10T14:44:56.855Z,37.77
2019-02-10T14:47:27.159Z,36.63
2019-02-10T14:49:57.315Z,38.87
2019-02-10T14:52:27.786Z,32.47
2019-02-10T14:54:58.037Z,36.03
2019-02-10T14:57:28.565Z,38.90
2019-02-10T14:59:59.189Z,36.40
2019-02-10T15:02:29.613Z,38.07
2019-02-10T15:04:59.864Z,33.97
2019-02-10T15:07:30.370Z,39.27
2019-02-10T15:10:01.895Z,38.70
2019-02-10T15:12:32.327Z,42.23
2019-02-10T15:15:02.577Z,42.70
2019-02-10T15:17:33.386Z,42.13
2019-02-10T15:20:03.711Z,39.10
2019-02-10T15:22:34.593Z,40.93
2019-02-10T15:25:05.307Z,43.57
2019-02-10T15:27:35.550Z,44.83
2019-02-10T15:30:07.399Z,45.00
2019-02-10T15:32:37.690Z,48.20
2019-02-10T15:35:08.549Z,48.47
2019-02-10T15:37:39.824Z,46.80
2019-02-10T15:40:10.538Z,57.00
2019-02-10T15:42:41.119Z,48.40
2019-02-10T15:45:11.582Z,48.50
2019-02-10T15:47:42.198Z,47.97
2019-02-10T15:50:12.477Z,43.70
2019-02-10T15:52:42.989Z,49.43
2019-02-10T15:55:13.227Z,57.87
2019-02-10T15:57:44.014Z,48.40
2019-02-10T16:00:16.691Z,49.50
2019-02-10T16:02:46.997Z,51.80
2019-02-10T16:05:17.267Z,53.50
2019-02-10T16:07:47.710Z,58.00
2019-02-10T16:10:17.950Z,60.00
2019-02-10T16:12:48.206Z,59.73
2019-02-10T16:15:18.658Z,61.57
2019-02-10T16:17:48.937Z,62.03
2019-02-10T16:20:19.682Z,61.93
2019-02-10T16:22:49.958Z,62.80
2019-02-10T16:25:20.310Z,59.27
2019-02-10T16:27:50.694Z,63.30
2019-02-10T16:30:22.666Z,60.50
2019-02-10T16:32:52.902Z,59.87
2019-02-10T16:35:23.163Z,63.27
2019-02-10T16:37:54.642Z,61.90
2019-02-10T16:40:24.997Z,60.33
2019-02-10T16:42:57.532Z,61.27
2019-02-10T16:45:27.784Z,59.57
2019-02-10T16:47:58.570Z,55.87
2019-02-10T16:50:28.990Z,68.80
2019-02-10T16:52:59.622Z,62.03
2019-02-10T16:55:29.897Z,58.60
2019-02-10T16:58:00.155Z,61.60
2019-02-10T17:00:31.041Z,62.63
2019-02-10T17:03:01.361Z,59.50
2019-02-10T17:05:31.726Z,61.90
2019-02-10T17:08:02.492Z,61.23
2019-02-10T17:10:33.187Z,58.00
2019-02-10T17:13:03.447Z,56.17
2019-02-10T17:15:34.098Z,60.37
2019-02-10T17:18:04.365Z,60.13
2019-02-10T17:20:34.596Z,62.57
2019-02-10T17:23:05.062Z,60.80
2019-02-10T17:25:35.338Z,60.10
2019-02-10T17:28:05.828Z,61.43
2019-02-10T17:30:36.487Z,61.23
2019-02-10T17:33:07.194Z,58.10
2019-02-10T17:35:37.482Z,56.27
2019-02-10T17:38:09.158Z,55.90
2019-02-10T17:40:43.690Z,57.40
2019-02-10T17:43:14.046Z,57.23
2019-02-10T17:45:44.295Z,61.43
2019-02-10T17:48:15.025Z,56.87
2019-02-10T17:50:45.272Z,63.20
2019-02-10T17:53:15.731Z,60.57
2019-02-10T17:55:46.203Z,59.70
2019-02-10T17:58:16.485Z,56.83
2019-02-10T18:00:49.142Z,57.70
2019-02-10T18:03:19.501Z,53.60
2019-02-10T18:05:50.236Z,59.67
2019-02-10T18:08:22.950Z,55.90
2019-02-10T18:10:54.035Z,57.40
2019-02-10T18:13:24.365Z,63.07
2019-02-10T18:16:17.851Z,62.37
2019-02-10T18:19:06.017Z,58.10
2019-02-10T18:21:53.364Z,60.63
2019-02-10T18:24:40.697Z,56.67
2019-02-10T18:27:35.512Z,60.43
2019-02-10T18:30:19.156Z,57.60
2019-02-10T18:33:10.379Z,61.60
2019-02-10T18:35:59.591Z,59.93
2019-02-10T18:38:55.251Z,58.93
2019-02-10T18:41:39.139Z,63.30
2019-02-10T18:44:23.478Z,57.60
2019-02-10T18:47:07.475Z,56.33
2019-02-10T18:50:00.222Z,57.40
2019-02-10T18:52:53.598Z,59.60
2019-02-10T18:55:37.009Z,60.43
2019-02-10T18:58:27.552Z,64.13
2019-02-10T19:01:30.571Z,60.57
2019-02-10T19:04:32.460Z,61.67
2019-02-10T19:07:31.084Z,64.50
2019-02-10T19:10:07.565Z,58.73
2019-02-10T19:13:03.475Z,59.93
2019-02-10T19:15:42.072Z,61.03
2019-02-10T19:18:20.832Z,61.17
2019-02-10T19:21:10.030Z,62.40
2019-02-10T19:23:59.556Z,68.20
2019-02-10T19:26:43.167Z,63.27
2019-02-10T19:29:45.009Z,63.57
2019-02-10T19:32:32.959Z,62.93
2019-02-10T19:35:12.133Z,59.90
2019-02-10T19:37:59.990Z,63.13
2019-02-10T19:40:53.117Z,63.87
2019-02-10T19:43:42.342Z,62.67
2019-02-10T19:46:40.255Z,64.83
2019-02-10T19:49:28.518Z,65.87
2019-02-10T19:52:30.236Z,62.30
2019-02-10T19:55:31.644Z,72.17
2019-02-10T19:58:27.287Z,65.37
2019-02-10T20:01:06.852Z,63.80
2019-02-10T20:03:55.233Z,67.57
2019-02-10T20:06:39.900Z,64.50
2019-02-10T20:09:38.612Z,64.17
2019-02-10T20:12:32.093Z,64.17
2019-02-10T20:15:24.170Z,71.00
2019-02-10T20:18:15.450Z,64.80
2019-02-10T20:21:10.849Z,64.27
2019-02-10T20:23:56.353Z,61.30
2019-02-10T20:26:57.038Z,68.10
2019-02-10T20:29:52.122Z,68.53
2019-02-10T20:32:45.824Z,64.53
2019-02-10T20:35:34.811Z,63.87
2019-02-10T20:38:22.000Z,68.83
2019-02-10T20:41:02.498Z,65.57
2019-02-10T20:43:51.730Z,66.67
2019-02-10T20:46:34.777Z,61.33
2019-02-10T20:49:30.107Z,64.77
2019-02-10T20:52:23.651Z,61.03
2019-02-10T20:55:28.744Z,63.67
2019-02-10T20:58:30.126Z,64.13
2019-02-10T21:01:28.960Z,64.37
2019-02-10T21:04:33.186Z,65.87
2019-02-10T21:07:18.378Z,71.10
2019-02-10T21:10:06.691Z,66.93
2019-02-10T21:12:54.863Z,65.90
2019-02-10T21:15:39.172Z,64.40
2019-02-10T21:18:22.562Z,66.37
2019-02-10T21:21:17.861Z,69.63
2019-02-10T21:24:13.686Z,65.07
2019-02-10T21:27:05.976Z,63.77
2019-02-10T21:29:55.392Z,65.90
2019-02-10T21:33:02.665Z,66.27
2019-02-10T21:35:48.151Z,64.50
2019-02-10T21:38:49.318Z,66.27
2019-02-10T21:41:40.933Z,71.97
2019-02-10T21:44:26.571Z,65.40
2019-02-10T21:47:10.292Z,64.50
2019-02-10T21:49:40.583Z,69.43
2019-02-10T21:52:11.321Z,66.97
2019-02-10T21:54:41.609Z,71.80
2019-02-10T21:57:12.744Z,71.47
2019-02-10T21:59:44.431Z,73.40
2019-02-10T22:02:17.837Z,67.23
2019-02-10T22:04:48.134Z,66.40
2019-02-10T22:07:18.801Z,68.53
2019-02-10T22:09:49.100Z,68.47
2019-02-10T22:12:19.721Z,71.90
2019-02-10T22:14:50.099Z,68.57
2019-02-10T22:17:20.795Z,74.00
2019-02-10T22:19:51.047Z,67.90
2019-02-10T22:22:21.657Z,66.63
2019-02-10T22:24:51.950Z,68.57
2019-02-10T22:27:25.795Z,68.53
2019-02-10T22:29:56.106Z,68.37
2019-02-10T22:32:26.437Z,68.57
2019-02-10T22:34:56.699Z,71.33
2019-02-10T22:37:27.023Z,71.77
2019-02-10T22:39:57.281Z,64.03
2019-02-10T22:42:28.640Z,68.60
2019-02-10T22:44:58.824Z,67.27
2019-02-10T22:47:30.323Z,66.53
2019-02-10T22:50:00.584Z,68.13
2019-02-10T22:52:31.407Z,63.87
2019-02-10T22:55:01.671Z,70.73
2019-02-10T22:57:32.135Z,71.37
2019-02-10T23:00:02.463Z,68.17
2019-02-10T23:02:35.058Z,71.40
2019-02-10T23:05:05.584Z,67.83
2019-02-10T23:07:36.085Z,67.77
2019-02-10T23:10:06.347Z,64.43
2019-02-10T23:12:38.081Z,66.63
2019-02-10T23:15:08.343Z,65.43
2019-02-10T23:17:38.830Z,63.50
2019-02-10T23:20:09.086Z,67.90
2019-02-10T23:22:39.888Z,70.70
2019-02-10T23:25:10.050Z,66.53
2019-02-10T23:27:40.633Z,64.43
2019-02-10T23:30:10.797Z,66.67
2019-02-10T23:32:41.394Z,67.40
2019-02-10T23:35:11.569Z,65.87
2019-02-10T23:37:42.130Z,66.77
2019-02-10T23:40:12.686Z,65.20
2019-02-10T23:42:45.264Z,65.93
2019-02-10T23:45:15.528Z,65.47
2019-02-10T23:47:46.142Z,61.50
2019-02-10T23:50:16.396Z,64.37
2019-02-10T23:52:46.666Z,66.47
2019-02-10T23:55:17.374Z,59.97
2019-02-10T23:57:47.658Z,63.27
